Main page
METAR-TAF:

METAR-TAF

Airports :

Beirut Air Base

Beirut, Lebanon

latitude: 33-49N, longitude: 035-29E, elevation: 29 m

Current weather observation

The report was made 9 minutes ago, at 22:00 UTC
Wind 6 kt from the Southeast
Temperature 13°C
Humidity 54%
Pressure 1019 hPa
Visibility: 8000 m

METAR: OLBA 222200Z 14006KT 8000 NSC 13/04 Q1019 NOSIG

Time: 00:09 (22:09 UTC)

Forecast

The report was made 6 hours and 9 minutes ago, at 16:00 UTC
Forecast valid from 22 at 18 UTC to 23 at 24 UTC
Wind 4 kt from the East/Southeast
Visibility: 8000 m
Becoming
from 23 at 06 UTC to 23 at 09 UTC
Wind 10 kt from the North/Northwest
Temporary
from 23 at 08 UTC to 23 at 14 UTC
Visibility: 5000 m
haze
Becoming
from 23 at 18 UTC to 23 at 20 UTC
Wind 4 kt from the East

TAF: OLBA 221600Z 2218/2324 12004KT 8000 NSC BECMG 2306/2309 34010KT TEMPO 2308/2314 5000 HZ BECMG 2318/2320 10004KT

Weather observations and forecasts of more than 4000 airports (METAR and TAF reports).

The available stations are represented by yellow and red dots on the map.

Hover mouse over dot to see the name of the station.

Then click to see weather observations and forecasts.

To change the map : click on the green buttons with a black cross to zoom in, on the green button with a dash to zoom out, or on the green arrows for adjacent maps.


METAR-TAF: